Time;durP1;ratioP1;P1;durP2;ratioP2;P2;SDS_P1;SDS_P2;PMS_P1;PMS_P2;Temp;Humidity;BMP_temperature;BMP_pressure;BME280_temperature;BME280_humidity;BME280_pressure;Samples;Min_cycle;Max_cycle;Signal;HPM_P1;HPM_P2
2023/12/04 00:03:17;;;;;;;16.57;11.43;;;;;;;-0.27;53.79;98965.84;8364028;23;20619;-75
2023/12/04 00:06:38;;;;;;;19.67;12.90;;;;;;;-0.20;55.72;98966.16;8363532;23;20271;-75
2023/12/04 00:10:00;;;;;;;16.17;11.97;;;;;;;0.32;54.88;98950.78;8362536;23;20220;-75
2023/12/04 00:13:21;;;;;;;22.30;12.20;;;;;;;0.47;54.40;98952.03;8363382;23;20565;-76
2023/12/04 00:16:43;;;;;;;18.33;12.13;;;;;;;0.30;54.48;98948.25;8362461;23;20260;-76
2023/12/04 00:20:07;;;;;;;18.20;11.50;;;;;;;0.63;54.64;98941.72;8360481;23;20344;-76
2023/12/04 00:23:28;;;;;;;15.00;10.63;;;;;;;0.85;52.99;98941.44;8363131;23;20705;-75
2023/12/04 00:26:50;;;;;;;14.33;10.57;;;;;;;0.59;52.54;98941.16;8362912;23;20315;-76
2023/12/04 00:30:11;;;;;;;13.63;10.67;;;;;;;0.65;51.97;98937.94;8362360;23;20741;-76
2023/12/04 00:33:33;;;;;;;15.83;10.40;;;;;;;0.22;52.00;98934.00;8361752;23;20185;-75
2023/12/04 00:36:56;;;;;;;17.07;10.90;;;;;;;-0.37;53.58;98888.16;8361982;23;20227;-76
2023/12/04 00:40:17;;;;;;;15.30;11.43;;;;;;;-0.03;52.83;98874.44;8361411;23;20217;-76
2023/12/04 00:43:39;;;;;;;16.90;11.00;;;;;;;-0.75;54.14;98921.56;8362373;23;20268;-76
2023/12/04 00:47:00;;;;;;;15.77;10.23;;;;;;;-0.80;53.84;98907.91;8361813;23;20185;-76
2023/12/04 00:50:22;;;;;;;14.70;11.30;;;;;;;-1.18;55.65;98913.00;8360275;23;20236;-76
2023/12/04 00:53:45;;;;;;;18.00;10.63;;;;;;;-0.84;55.88;98912.63;8362865;23;20322;-76
2023/12/04 00:57:06;;;;;;;14.90;10.93;;;;;;;-0.35;54.48;98909.22;8361158;23;20214;-76
2023/12/04 01:00:28;;;;;;;15.37;10.47;;;;;;;-0.30;54.09;98914.94;8361097;23;20233;-76
2023/12/04 01:03:49;;;;;;;16.20;10.80;;;;;;;-0.75;54.26;98914.50;8361388;23;20501;-76
2023/12/04 01:07:11;;;;;;;17.97;10.97;;;;;;;-0.94;54.52;98874.72;8360157;23;20271;-76
2023/12/04 01:10:34;;;;;;;14.20;9.97;;;;;;;-0.74;55.19;98899.44;8360749;23;20287;-76
2023/12/04 01:13:55;;;;;;;14.27;10.30;;;;;;;-0.75;54.70;98887.19;8361821;23;20347;-76
2023/12/04 01:17:17;;;;;;;15.77;10.70;;;;;;;-0.60;54.17;98862.03;8362247;23;20201;-75
2023/12/04 01:20:38;;;;;;;15.47;10.83;;;;;;;-0.47;53.90;98867.91;8362038;23;20765;-76
2023/12/04 01:24:00;;;;;;;15.73;10.00;;;;;;;-0.40;53.89;98875.19;8362824;23;20191;-76
2023/12/04 01:27:23;;;;;;;15.17;8.97;;;;;;;-0.14;53.49;98870.25;8362142;23;20185;-76
2023/12/04 01:30:44;;;;;;;14.43;10.20;;;;;;;0.10;52.63;98869.72;8360165;23;20210;-75
2023/12/04 01:34:06;;;;;;;17.30;10.40;;;;;;;0.12;52.90;98886.28;8361035;23;20275;-75
2023/12/04 01:37:27;;;;;;;13.57;9.77;;;;;;;0.18;53.29;98879.63;8362318;23;20219;-75
2023/12/04 01:40:49;;;;;;;14.60;9.90;;;;;;;0.23;52.34;98864.97;8360590;23;20680;-76
2023/12/04 01:44:12;;;;;;;14.90;11.17;;;;;;;-0.68;54.78;98864.50;8362850;23;20329;-75
2023/12/04 01:47:33;;;;;;;14.50;10.33;;;;;;;-0.49;54.60;98848.69;8360923;23;20641;-76
2023/12/04 01:50:55;;;;;;;14.30;9.63;;;;;;;-0.41;54.37;98862.06;8360282;23;20294;-75
2023/12/04 01:54:17;;;;;;;15.00;10.10;;;;;;;-0.59;54.64;98851.28;8361955;23;20265;-75
2023/12/04 01:57:38;;;;;;;14.00;9.60;;;;;;;-0.16;53.62;98851.81;8362214;23;20330;-76
2023/12/04 02:01:02;;;;;;;13.30;10.37;;;;;;;-0.08;53.47;98860.75;8360502;23;20328;-75
2023/12/04 02:04:24;;;;;;;13.97;10.07;;;;;;;-0.74;54.42;98852.63;8362627;23;20189;-76
2023/12/04 02:07:45;;;;;;;15.67;10.43;;;;;;;-0.43;54.89;98856.91;8360347;23;20187;-75
2023/12/04 02:11:07;;;;;;;13.57;9.23;;;;;;;-0.22;54.42;98845.25;8361926;23;20237;-75
2023/12/04 02:14:28;;;;;;;17.80;10.77;;;;;;;0.03;54.24;98835.94;8362698;23;20897;-76
2023/12/04 02:17:51;;;;;;;16.03;10.07;;;;;;;0.15;52.84;98843.63;8362750;23;20524;-76
2023/12/04 02:21:13;;;;;;;13.07;9.60;;;;;;;0.02;53.21;98837.72;8361271;23;20641;-76
2023/12/04 02:24:36;;;;;;;14.20;10.13;;;;;;;-0.22;54.72;98839.94;8361116;23;20212;-75
2023/12/04 02:28:00;;;;;;;16.60;10.37;;;;;;;0.09;54.23;98825.63;8360346;23;20181;-75
2023/12/04 02:31:23;;;;;;;15.10;10.57;;;;;;;0.29;53.60;98827.28;8362494;23;20212;-76
2023/12/04 02:34:46;;;;;;;14.07;9.37;;;;;;;0.06;52.74;98790.63;8362464;23;20351;-76
2023/12/04 02:38:07;;;;;;;14.60;9.80;;;;;;;0.38;53.74;98813.19;8361579;23;20708;-76
2023/12/04 02:41:30;;;;;;;14.13;9.63;;;;;;;0.50;52.66;98806.75;8360822;23;20284;-76
2023/12/04 02:44:52;;;;;;;12.30;9.57;;;;;;;0.45;52.61;98806.34;8362128;23;20206;-76
2023/12/04 02:48:13;;;;;;;14.50;9.13;;;;;;;0.41;52.91;98804.09;8360194;23;20330;-77
2023/12/04 02:51:35;;;;;;;13.07;9.37;;;;;;;0.64;51.90;98806.28;8360979;23;20289;-75
2023/12/04 02:54:56;;;;;;;14.67;9.43;;;;;;;0.57;51.63;98791.94;8363229;23;20238;-76
2023/12/04 02:58:19;;;;;;;13.60;9.33;;;;;;;0.42;51.96;98813.75;8360318;23;20267;-75
2023/12/04 03:01:41;;;;;;;14.37;9.50;;;;;;;0.33;51.71;98780.13;8362304;23;20291;-75
2023/12/04 03:05:02;;;;;;;11.03;8.73;;;;;;;0.15;52.46;98785.31;8362745;23;20608;-75
2023/12/04 03:08:23;;;;;;;12.13;8.60;;;;;;;0.27;51.57;98778.03;8359806;23;20271;-76
2023/12/04 03:11:45;;;;;;;13.33;9.07;;;;;;;0.20;52.27;98764.50;8361367;23;20575;-76
2023/12/04 03:15:10;;;;;;;18.43;10.43;;;;;;;-0.21;52.83;98761.31;8361949;23;20256;-76
2023/12/04 03:18:31;;;;;;;12.07;8.67;;;;;;;-0.23;53.30;98757.13;8362492;23;20182;-77
2023/12/04 03:21:53;;;;;;;14.80;9.73;;;;;;;-0.67;53.73;98739.94;8361578;23;20268;-76
2023/12/04 03:25:14;;;;;;;13.10;9.43;;;;;;;-0.53;55.14;98755.44;8362683;23;20194;-76
2023/12/04 03:28:36;;;;;;;13.77;9.53;;;;;;;-0.58;55.18;98746.25;8360152;23;20260;-76
2023/12/04 03:31:59;;;;;;;15.87;9.73;;;;;;;-0.48;55.86;98742.63;8360699;23;20584;-76
2023/12/04 03:35:20;;;;;;;10.33;7.83;;;;;;;0.16;53.80;98733.13;8362334;23;20213;-76
2023/12/04 03:38:42;;;;;;;12.60;8.80;;;;;;;0.19;54.28;98728.38;8361848;23;20641;-76
2023/12/04 03:42:04;;;;;;;10.70;8.57;;;;;;;0.28;53.57;98722.22;8361701;23;20689;-75
2023/12/04 03:45:25;;;;;;;11.50;8.93;;;;;;;0.23;53.40;98681.19;8362422;23;20316;-76
2023/12/04 03:48:48;;;;;;;13.53;8.70;;;;;;;0.16;52.98;98696.84;8360573;23;20320;-76
2023/12/04 03:52:09;;;;;;;15.00;9.00;;;;;;;-0.32;54.69;98702.34;8360583;23;20288;-76
2023/12/04 03:55:31;;;;;;;11.60;8.47;;;;;;;-0.40;55.02;98691.63;8361842;23;20776;-76
2023/12/04 03:58:52;;;;;;;11.63;8.67;;;;;;;-0.27;54.80;98683.25;8360760;23;20266;-76
2023/12/04 04:02:14;;;;;;;14.37;8.70;;;;;;;-0.28;54.94;98685.19;8361575;23;20216;-76
2023/12/04 04:05:37;;;;;;;10.03;7.73;;;;;;;-0.18;55.10;98676.25;8361566;23;20657;-76
2023/12/04 04:08:58;;;;;;;13.50;8.53;;;;;;;-0.02;55.39;98661.47;8359585;23;20284;-76
2023/12/04 04:12:20;;;;;;;11.50;7.97;;;;;;;-0.06;55.25;98680.41;8360281;23;20590;-75
2023/12/04 04:15:42;;;;;;;11.60;8.17;;;;;;;-0.15;55.61;98683.94;8361827;23;20182;-75
2023/12/04 04:19:03;;;;;;;13.73;9.23;;;;;;;-0.23;56.06;98688.28;8360943;23;20243;-75
2023/12/04 04:22:26;;;;;;;11.80;8.50;;;;;;;-0.42;55.60;98691.75;8360801;23;20235;-76
2023/12/04 04:25:47;;;;;;;13.23;9.17;;;;;;;0.02;55.24;98667.31;8361754;23;20224;-76
2023/12/04 04:29:09;;;;;;;12.10;9.03;;;;;;;0.34;54.55;98667.78;8360985;23;20251;-75
2023/12/04 04:32:31;;;;;;;12.37;8.67;;;;;;;0.12;54.25;98668.16;8376483;23;20319;-75
2023/12/04 04:35:52;;;;;;;14.53;9.43;;;;;;;-0.57;55.75;98690.50;8363773;23;20267;-75
2023/12/04 04:39:15;;;;;;;13.87;7.90;;;;;;;0.13;55.71;98678.56;8362069;23;20229;-75
2023/12/04 04:42:36;;;;;;;13.50;9.33;;;;;;;0.18;55.09;98686.13;8362825;23;20253;-76
2023/12/04 04:45:58;;;;;;;12.20;9.00;;;;;;;0.25;54.64;98679.25;8362236;23;20247;-76
2023/12/04 04:49:19;;;;;;;16.63;11.03;;;;;;;0.15;54.31;98675.78;8361089;23;20284;-75
2023/12/04 04:52:41;;;;;;;15.33;10.57;;;;;;;-0.34;56.04;98691.91;8362930;23;20281;-76
2023/12/04 04:56:04;;;;;;;16.70;10.83;;;;;;;0.30;55.31;98680.47;8363075;23;20506;-76
2023/12/04 04:59:27;;;;;;;14.27;10.20;;;;;;;0.45;54.57;98667.59;8359945;23;20283;-76
2023/12/04 05:02:48;;;;;;;16.53;9.93;;;;;;;0.52;54.60;98671.34;8363040;23;20166;-76
2023/12/04 05:06:10;;;;;;;11.50;8.93;;;;;;;0.46;54.77;98672.75;8362443;23;20276;-76
2023/12/04 05:09:31;;;;;;;15.53;9.70;;;;;;;0.02;55.76;98636.34;8361076;23;20279;-76
2023/12/04 05:12:54;;;;;;;11.63;9.30;;;;;;;0.62;55.60;98658.88;8363603;23;20257;-76
2023/12/04 05:16:16;;;;;;;12.47;8.47;;;;;;;0.50;55.55;98650.28;8363584;23;20255;-76
2023/12/04 05:19:37;;;;;;;11.67;8.73;;;;;;;0.71;54.80;98648.22;8362008;23;20295;-76
2023/12/04 05:22:59;;;;;;;9.83;7.03;;;;;;;0.87;54.24;98636.94;8361187;23;20316;-76
2023/12/04 05:26:20;;;;;;;13.77;9.17;;;;;;;0.99;53.67;98636.59;8361702;23;20311;-77
2023/12/04 05:29:43;;;;;;;9.57;7.80;;;;;;;1.26;52.29;98636.53;8362068;23;20255;-76
2023/12/04 05:33:04;;;;;;;14.07;8.40;;;;;;;1.29;52.90;98640.72;8359613;23;20304;-76
2023/12/04 05:36:26;;;;;;;9.50;8.37;;;;;;;1.15;53.49;98638.59;8360587;23;20314;-75
2023/12/04 05:39:47;;;;;;;10.23;8.57;;;;;;;1.03;53.97;98623.88;8359764;23;20340;-76
2023/12/04 05:43:09;;;;;;;10.53;7.97;;;;;;;1.14;52.62;98597.09;8354657;23;20643;-75
2023/12/04 05:46:32;;;;;;;10.67;7.20;;;;;;;1.48;52.76;98619.34;8360678;23;20269;-75
2023/12/04 05:49:53;;;;;;;9.80;7.63;;;;;;;1.42;52.97;98615.44;8360623;23;20209;-75
2023/12/04 05:53:15;;;;;;;10.13;7.90;;;;;;;1.41;52.45;98603.16;8361175;23;20331;-75
2023/12/04 05:56:36;;;;;;;8.27;7.13;;;;;;;1.60;52.20;98594.19;8362246;23;20211;-75
2023/12/04 05:59:58;;;;;;;8.27;7.00;;;;;;;1.69;52.81;98601.22;8362184;23;20590;-75
2023/12/04 06:03:21;;;;;;;9.03;7.47;;;;;;;1.78;52.13;98595.00;8361376;23;20182;-75
2023/12/04 06:06:42;;;;;;;10.13;8.03;;;;;;;1.90;51.52;98596.41;8361552;23;20188;-75
2023/12/04 06:10:05;;;;;;;12.07;8.40;;;;;;;1.58;52.46;98604.13;8362034;23;20650;-75
2023/12/04 06:13:26;;;;;;;19.57;12.90;;;;;;;1.41;53.34;98597.84;8362764;23;20202;-75
2023/12/04 06:16:48;;;;;;;14.83;10.20;;;;;;;1.50;52.48;98604.91;8362800;23;20217;-75
2023/12/04 06:20:12;;;;;;;32.03;16.63;;;;;;;1.21;52.39;98587.53;8362522;23;20213;-75
2023/12/04 06:23:34;;;;;;;21.53;12.30;;;;;;;0.88;53.49;98601.47;8375593;23;20188;-75
2023/12/04 06:26:57;;;;;;;15.17;11.70;;;;;;;1.09;53.85;98592.25;8362748;23;20609;-75
2023/12/04 06:30:20;;;;;;;12.47;9.40;;;;;;;1.26;54.25;98602.00;8362227;23;20240;-75
2023/12/04 06:33:42;;;;;;;10.23;8.90;;;;;;;1.57;52.71;98595.34;8362678;23;20304;-75
2023/12/04 06:37:10;;;;;;;12.27;9.23;;;;;;;1.92;51.34;98599.72;8360128;23;20291;-75
2023/12/04 06:40:32;;;;;;;11.10;8.43;;;;;;;1.71;51.82;98586.78;8360123;23;20290;-76
2023/12/04 06:43:54;;;;;;;12.27;9.20;;;;;;;1.76;51.73;98592.47;8361617;23;20268;-76
2023/12/04 06:47:18;;;;;;;11.03;8.83;;;;;;;1.42;52.24;98593.38;8361907;23;20209;-77
2023/12/04 06:50:40;;;;;;;11.80;8.70;;;;;;;1.80;51.65;98593.84;8359911;23;20296;-77
2023/12/04 06:54:03;;;;;;;9.67;7.50;;;;;;;1.73;52.05;98560.06;8361649;23;20201;-77
2023/12/04 06:57:25;;;;;;;9.20;8.17;;;;;;;2.01;51.10;98593.50;8362733;23;20319;-77
2023/12/04 07:00:48;;;;;;;10.17;8.00;;;;;;;2.13;51.27;98574.44;8360119;23;20229;-77
2023/12/04 07:04:10;;;;;;;8.50;7.13;;;;;;;2.31;50.56;98569.88;8362159;23;20170;-77
2023/12/04 07:07:32;;;;;;;12.13;9.07;;;;;;;2.19;50.72;98568.47;8358950;23;20833;-76
2023/12/04 07:10:54;;;;;;;10.60;7.80;;;;;;;2.05;51.24;98576.22;8359319;23;20205;-81
2023/12/04 07:14:16;;;;;;;10.83;7.97;;;;;;;1.85;51.08;98564.97;8360549;23;20285;-76
2023/12/04 07:17:38;;;;;;;13.67;9.07;;;;;;;1.72;52.13;98553.09;8361732;23;20699;-76
2023/12/04 07:20:59;;;;;;;18.90;11.03;;;;;;;1.94;51.62;98540.09;8361357;23;20336;-76
2023/12/04 07:24:21;;;;;;;16.87;10.27;;;;;;;1.79;51.49;98549.66;8361557;23;20628;-76
2023/12/04 07:27:44;;;;;;;12.57;10.07;;;;;;;1.81;52.25;98534.38;8359640;23;20636;-76
2023/12/04 07:31:06;;;;;;;13.27;10.13;;;;;;;1.95;52.00;98540.94;8359928;23;20328;-76
2023/12/04 07:34:28;;;;;;;12.37;9.43;;;;;;;2.08;50.69;98533.38;8359242;23;20645;-76
2023/12/04 07:37:49;;;;;;;13.53;9.57;;;;;;;2.36;50.64;98546.28;8360553;23;20166;-76
2023/12/04 07:41:11;;;;;;;14.33;10.30;;;;;;;2.59;49.92;98549.22;8360498;23;20715;-76
2023/12/04 07:44:34;;;;;;;11.67;9.50;;;;;;;2.51;49.79;98547.34;8361285;23;20264;-76
2023/12/04 07:47:55;;;;;;;11.13;8.20;;;;;;;2.41;49.64;98529.84;8360185;23;20269;-76
2023/12/04 07:51:17;;;;;;;10.57;8.73;;;;;;;2.16;49.96;98502.34;8359664;23;20670;-75
2023/12/04 07:54:38;;;;;;;9.93;8.60;;;;;;;2.29;50.15;98531.13;8361902;23;20340;-76
2023/12/04 07:57:59;;;;;;;13.67;9.10;;;;;;;2.18;50.29;98526.94;8361216;23;20205;-76
2023/12/04 08:01:24;;;;;;;11.90;9.20;;;;;;;2.35;49.84;98527.81;8362417;23;20216;-77
2023/12/04 08:04:45;;;;;;;11.23;8.47;;;;;;;2.27;50.09;98514.50;8363133;23;20276;-76
2023/12/04 08:08:07;;;;;;;11.40;8.10;;;;;;;2.35;50.27;98530.47;8361006;23;20244;-76
2023/12/04 08:11:28;;;;;;;13.07;8.60;;;;;;;2.39;50.12;98508.75;8362754;23;20697;-76
2023/12/04 08:14:50;;;;;;;12.70;9.03;;;;;;;2.72;49.98;98529.09;8363987;23;20289;-76
2023/12/04 08:18:13;;;;;;;11.00;8.67;;;;;;;2.22;50.03;98512.34;8363578;23;20712;-76
2023/12/04 08:21:34;;;;;;;13.03;9.20;;;;;;;2.72;50.34;98514.97;8362077;23;20213;-78
2023/12/04 08:24:57;;;;;;;11.03;8.43;;;;;;;2.13;50.79;98521.25;8361331;23;20275;-76
2023/12/04 08:28:19;;;;;;;12.07;8.70;;;;;;;2.77;50.86;98524.13;8362164;23;20194;-78
2023/12/04 08:31:41;;;;;;;11.80;8.60;;;;;;;2.78;50.01;98522.31;8375777;23;20698;-79
2023/12/04 08:35:06;;;;;;;12.73;9.67;;;;;;;2.25;51.18;98522.63;8364027;23;20188;-78
2023/12/04 08:38:27;;;;;;;12.27;8.63;;;;;;;2.09;50.95;98498.66;8362675;23;20182;-77
2023/12/04 08:41:49;;;;;;;11.20;9.20;;;;;;;2.04;53.57;98500.97;8362489;23;20245;-75
2023/12/04 08:45:11;;;;;;;11.97;9.00;;;;;;;2.16;51.18;98493.50;8362402;23;20264;-77
2023/12/04 08:48:32;;;;;;;12.50;8.93;;;;;;;1.69;53.17;98479.00;8361550;23;20281;-75
2023/12/04 08:51:56;;;;;;;10.77;9.13;;;;;;;2.23;52.12;98471.44;8361705;23;20666;-75
2023/12/04 08:55:17;;;;;;;13.23;9.70;;;;;;;2.46;51.56;98461.88;8361811;23;20193;-75
2023/12/04 08:58:39;;;;;;;10.80;8.53;;;;;;;3.13;50.08;98460.78;8362105;23;20511;-74
2023/12/04 09:02:03;;;;;;;14.67;9.60;;;;;;;3.29;49.72;98460.75;8362934;23;20178;-74
2023/12/04 09:05:25;;;;;;;11.53;9.27;;;;;;;3.49;49.19;98470.88;8362813;23;20182;-75
2023/12/04 09:08:47;;;;;;;13.47;9.47;;;;;;;3.42;49.38;98456.56;8360811;23;20192;-75
2023/12/04 09:12:10;;;;;;;13.30;9.83;;;;;;;3.31;50.07;98469.44;8361299;23;20723;-73
2023/12/04 09:15:32;;;;;;;16.13;10.87;;;;;;;3.50;49.87;98477.06;8361433;23;20526;-73
2023/12/04 09:18:54;;;;;;;13.20;10.03;;;;;;;3.26;48.90;98448.59;8359042;23;20275;-73
2023/12/04 09:22:15;;;;;;;13.87;9.63;;;;;;;3.27;49.47;98473.41;8362210;23;20197;-72
2023/12/04 09:25:38;;;;;;;13.13;9.87;;;;;;;3.76;48.93;98505.16;8361098;23;20271;-72
2023/12/04 09:29:00;;;;;;;11.73;8.97;;;;;;;3.97;47.86;98484.13;8360052;23;20280;-75
2023/12/04 09:32:21;;;;;;;12.50;8.57;;;;;;;3.96;48.57;98501.09;8360222;23;20336;-74
2023/12/04 09:35:43;;;;;;;12.33;9.47;;;;;;;3.45;48.56;98476.72;8361565;23;20182;-75
2023/12/04 09:39:05;;;;;;;14.53;9.70;;;;;;;3.73;48.35;98478.00;8358471;23;20284;-72
2023/12/04 09:42:28;;;;;;;13.97;9.13;;;;;;;3.97;48.00;98469.94;8361865;23;20190;-73
2023/12/04 09:45:50;;;;;;;13.50;9.33;;;;;;;3.88;48.63;98477.13;8334754;23;20189;-72
2023/12/04 09:49:12;;;;;;;12.90;9.63;;;;;;;4.08;47.96;98478.38;8360902;23;20737;-72
2023/12/04 09:52:35;;;;;;;13.33;9.97;;;;;;;4.23;48.06;98460.66;8360391;23;20299;-72
2023/12/04 09:55:58;;;;;;;11.83;9.17;;;;;;;4.04;48.65;98453.09;8361109;23;20195;-73
2023/12/04 09:59:22;;;;;;;12.97;9.43;;;;;;;3.86;48.83;98467.66;8361682;23;20229;-73
2023/12/04 10:02:44;;;;;;;10.97;9.10;;;;;;;3.87;49.13;98478.16;8362561;23;20622;-71
2023/12/04 10:06:07;;;;;;;14.13;10.43;;;;;;;3.79;49.59;98470.16;8362351;23;20263;-71
2023/12/04 10:09:28;;;;;;;15.07;9.77;;;;;;;3.86;49.64;98472.97;8359035;23;20210;-72
2023/12/04 10:12:50;;;;;;;13.43;10.80;;;;;;;3.98;49.20;98467.13;8360856;23;20217;-72
2023/12/04 10:16:13;;;;;;;15.13;11.23;;;;;;;3.79;50.18;98464.81;8362148;23;20267;-71
2023/12/04 10:19:34;;;;;;;15.10;10.47;;;;;;;3.90;50.00;98456.47;8362008;23;20240;-72
2023/12/04 10:22:57;;;;;;;15.20;10.50;;;;;;;4.32;49.00;98462.28;8362090;23;20233;-72
2023/12/04 10:26:19;;;;;;;14.60;10.97;;;;;;;4.14;49.78;98476.88;8361275;23;20608;-72
2023/12/04 10:29:43;;;;;;;14.57;10.97;;;;;;;3.63;51.00;98445.38;8358354;23;20283;-72
2023/12/04 10:33:07;;;;;;;13.63;10.60;;;;;;;3.16;52.58;98449.78;8361782;23;20186;-73
2023/12/04 10:36:29;;;;;;;15.97;11.27;;;;;;;3.14;52.61;98433.97;8362010;23;20817;-74
2023/12/04 10:39:51;;;;;;;16.07;11.07;;;;;;;3.66;50.59;98429.06;8360340;23;20610;-74
2023/12/04 10:43:16;;;;;;;13.43;10.13;;;;;;;3.26;50.82;98427.28;8362154;23;20203;-71
2023/12/04 10:46:38;;;;;;;15.30;11.07;;;;;;;4.07;50.23;98425.25;8358511;23;20263;-72
2023/12/04 10:50:01;;;;;;;14.43;10.57;;;;;;;3.90;51.36;98413.78;8360539;23;20202;-71
2023/12/04 10:53:22;;;;;;;13.23;9.80;;;;;;;4.06;50.35;98410.22;8360875;23;20210;-74
2023/12/04 10:56:46;;;;;;;14.10;10.43;;;;;;;3.91;48.77;98403.97;8361218;23;20190;-71
2023/12/04 11:00:08;;;;;;;16.10;11.10;;;;;;;4.72;49.49;98394.50;8361879;23;20201;-71
2023/12/04 11:03:34;;;;;;;13.87;10.83;;;;;;;4.25;49.38;98397.28;8361013;23;20178;-73
2023/12/04 11:06:59;;;;;;;16.73;10.80;;;;;;;4.55;49.96;98379.59;8362244;23;20171;-74
2023/12/04 11:10:23;;;;;;;11.83;9.93;;;;;;;5.26;48.51;98385.34;8360450;23;20233;-72
2023/12/04 11:13:51;;;;;;;11.90;9.43;;;;;;;5.42;46.27;98374.47;8360471;23;20206;-72
2023/12/04 11:17:15;;;;;;;13.33;9.93;;;;;;;5.23;46.35;98354.47;8362588;23;20327;-72
2023/12/04 11:20:40;;;;;;;12.20;9.73;;;;;;;5.51;45.47;98331.44;8361214;23;20202;-72
2023/12/04 11:24:04;;;;;;;12.60;10.20;;;;;;;5.60;45.65;98316.13;8362409;23;20197;-72
2023/12/04 11:27:25;;;;;;;10.60;8.97;;;;;;;5.67;45.13;98317.84;8360930;23;20323;-73
2023/12/04 11:30:48;;;;;;;13.23;10.37;;;;;;;5.10;46.30;98327.53;8359346;23;20237;-73
2023/12/04 11:34:10;;;;;;;12.37;9.70;;;;;;;4.33;47.90;98327.03;8361155;23;20628;-74
2023/12/04 11:37:31;;;;;;;12.60;8.90;;;;;;;4.56;48.05;98323.38;8363340;23;20188;-73
2023/12/04 11:40:56;;;;;;;12.40;9.57;;;;;;;5.10;46.75;98321.34;8362133;23;20245;-72
2023/12/04 11:44:19;;;;;;;11.63;9.13;;;;;;;4.07;47.58;98324.69;8363396;23;20630;-72
2023/12/04 11:47:58;;;;;;;12.87;9.63;;;;;;;4.32;48.20;98328.84;8362053;23;20186;-73
2023/12/04 11:51:51;;;;;;;12.67;9.20;;;;;;;5.09;47.71;98325.03;8363464;23;20263;-73
2023/12/04 11:55:12;;;;;;;14.17;10.60;;;;;;;5.55;46.34;98315.84;8361600;23;20190;-73
2023/12/04 11:58:43;;;;;;;13.13;9.70;;;;;;;4.75;47.63;98311.34;8361231;23;20224;-73
2023/12/04 12:02:08;;;;;;;12.10;9.60;;;;;;;4.85;48.24;98291.38;8363215;23;20240;-73
2023/12/04 12:05:29;;;;;;;13.40;9.97;;;;;;;4.54;49.24;98288.00;8362935;23;20217;-73
2023/12/04 12:08:51;;;;;;;12.90;9.40;;;;;;;5.10;48.40;98260.75;8359168;23;20241;-73
2023/12/04 12:12:14;;;;;;;10.23;8.60;;;;;;;5.55;47.66;98252.50;8362089;23;20176;-73
2023/12/04 12:15:36;;;;;;;11.27;9.47;;;;;;;5.18;47.14;98239.28;8361447;23;20288;-74
2023/12/04 12:18:58;;;;;;;15.30;11.90;;;;;;;3.99;50.86;98226.09;8360525;23;20680;-73
2023/12/04 12:22:19;;;;;;;16.03;11.67;;;;;;;4.19;50.89;98197.91;8362113;23;20553;-73
2023/12/04 12:25:41;;;;;;;16.07;12.33;;;;;;;4.59;50.74;98215.38;8359432;23;20264;-74
2023/12/04 12:29:03;;;;;;;17.53;11.20;;;;;;;4.80;50.70;98208.34;8361681;23;20223;-73
2023/12/04 12:32:27;;;;;;;15.80;11.37;;;;;;;4.74;48.96;98198.38;8362152;23;20182;-72
2023/12/04 12:35:48;;;;;;;16.57;12.17;;;;;;;5.42;50.67;98206.91;8361616;23;20206;-72
2023/12/04 12:39:11;;;;;;;15.93;11.07;;;;;;;5.80;48.69;98197.72;8359917;23;20784;-73
2023/12/04 12:42:34;;;;;;;19.43;12.70;;;;;;;5.75;47.41;98180.53;8363136;23;20193;-74
2023/12/04 12:45:55;;;;;;;17.73;11.73;;;;;;;5.18;49.74;98167.13;8362048;23;20189;-74
2023/12/04 12:49:20;;;;;;;16.77;13.27;;;;;;;4.89;50.11;98159.16;8361230;23;20233;-73
2023/12/04 12:52:41;;;;;;;19.17;14.20;;;;;;;4.83;49.86;98159.88;8361489;23;20636;-72
2023/12/04 12:56:04;;;;;;;18.10;12.60;;;;;;;5.25;50.22;98151.19;8360691;23;20221;-72
2023/12/04 12:59:26;;;;;;;18.63;12.83;;;;;;;5.50;49.68;98153.34;8360109;23;20286;-72
2023/12/04 13:02:47;;;;;;;16.30;11.57;;;;;;;5.69;49.56;98160.72;8361063;23;20853;-76
2023/12/04 13:06:10;;;;;;;15.33;11.60;;;;;;;5.81;49.09;98158.41;8361838;23;20270;-73
2023/12/04 13:09:32;;;;;;;17.33;12.03;;;;;;;5.76;48.70;98161.63;8360282;23;20213;-73
2023/12/04 13:12:55;;;;;;;16.83;12.33;;;;;;;5.72;48.94;98154.19;8360683;23;20512;-72
2023/12/04 13:16:16;;;;;;;16.77;11.60;;;;;;;5.74;48.35;98138.75;8360969;23;20644;-72
2023/12/04 13:19:38;;;;;;;15.37;11.67;;;;;;;5.63;49.31;98141.94;8360513;23;20207;-72
2023/12/04 13:23:01;;;;;;;16.23;12.20;;;;;;;5.30;50.75;98141.56;8359224;23;20562;-71
2023/12/04 13:26:22;;;;;;;20.50;13.43;;;;;;;4.93;52.06;98144.41;8360912;23;20272;-74
2023/12/04 13:29:44;;;;;;;17.77;12.17;;;;;;;5.42;50.13;98133.91;8355600;23;20606;-73
2023/12/04 13:33:05;;;;;;;22.50;13.63;;;;;;;5.66;49.82;98110.28;8359624;23;20226;-73
2023/12/04 13:36:28;;;;;;;18.37;12.47;;;;;;;5.64;49.37;98117.69;8361956;23;20292;-74
2023/12/04 13:39:57;;;;;;;16.27;12.57;;;;;;;5.16;50.47;98106.88;8359204;23;20214;-74
2023/12/04 13:46:58;;;;;;;16.33;11.93;;;;;;;5.21;51.08;98096.44;8359973;23;20237;-75
2023/12/04 13:50:20;;;;;;;17.93;12.97;;;;;;;5.69;50.86;98090.38;8355721;23;20286;-75
2023/12/04 13:53:44;;;;;;;18.00;13.07;;;;;;;5.74;50.71;98074.56;8358263;23;20221;-75
2023/12/04 13:57:08;;;;;;;19.00;13.00;;;;;;;5.87;50.47;98072.03;8357435;23;20324;-76
2023/12/04 14:00:29;;;;;;;20.63;13.23;;;;;;;5.40;51.16;98077.97;8358647;23;20202;-76
2023/12/04 14:03:52;;;;;;;16.20;12.93;;;;;;;5.46;51.41;98087.91;8361509;23;20234;-74
2023/12/04 14:07:14;;;;;;;19.80;11.87;;;;;;;5.49;50.36;98084.81;8363074;23;20525;-74
2023/12/04 14:10:35;;;;;;;17.60;12.73;;;;;;;4.58;52.28;98070.41;8361462;23;20690;-74
2023/12/04 14:13:58;;;;;;;19.90;14.00;;;;;;;4.53;52.64;98086.16;8359749;23;20202;-74
2023/12/04 14:17:20;;;;;;;18.77;13.63;;;;;;;4.70;53.32;98070.75;8360166;23;20297;-74
2023/12/04 14:20:41;;;;;;;15.60;12.10;;;;;;;5.19;52.71;98064.56;8361840;23;20229;-74
2023/12/04 14:24:03;;;;;;;19.43;14.00;;;;;;;5.18;51.18;98046.88;8362706;23;20263;-73
2023/12/04 14:27:24;;;;;;;22.40;12.87;;;;;;;5.35;51.00;98031.44;8361433;23;20271;-73
2023/12/04 14:30:48;;;;;;;18.50;12.50;;;;;;;5.25;50.22;98047.78;8360668;23;20289;-73
2023/12/04 14:34:09;;;;;;;20.77;13.17;;;;;;;5.44;51.11;98036.47;8361517;23;20237;-73
2023/12/04 14:37:31;;;;;;;18.23;12.50;;;;;;;5.00;51.62;98035.81;8362649;23;20377;-73
2023/12/04 14:40:52;;;;;;;19.23;13.97;;;;;;;4.46;53.37;98047.88;8361490;23;20295;-73
2023/12/04 14:44:14;;;;;;;16.30;12.30;;;;;;;4.66;52.63;98024.94;8375466;23;20753;-73
2023/12/04 14:47:37;;;;;;;19.90;13.27;;;;;;;4.33;53.70;98037.03;8360949;23;20265;-73
2023/12/04 14:50:58;;;;;;;23.07;15.17;;;;;;;4.86;53.74;98049.19;8360586;23;20335;-75
2023/12/04 14:54:32;;;;;;;26.43;17.60;;;;;;;5.20;52.78;98036.03;8360576;23;20201;-74
2023/12/04 14:58:28;;;;;;;20.73;14.40;;;;;;;5.18;53.62;98035.41;8360666;23;20797;-74
2023/12/04 15:13:12;;;;;;;19.43;14.17;;;;;;;5.44;52.14;98012.44;8394213;23;20200;-72
2023/12/04 15:16:35;;;;;;;19.87;12.83;;;;;;;5.74;51.86;97984.50;8359015;23;20324;-73
2023/12/04 15:23:40;;;;;;;19.80;13.73;;;;;;;5.51;53.42;97988.41;8360500;23;20174;-72
2023/12/04 15:27:03;;;;;;;19.47;14.17;;;;;;;5.01;54.94;98001.91;8362112;23;20238;-73
2023/12/04 15:30:24;;;;;;;19.83;13.10;;;;;;;5.11;55.48;97984.56;8361272;23;20690;-75
2023/12/04 15:33:46;;;;;;;18.57;14.20;;;;;;;4.91;56.21;97990.72;8361105;23;20216;-73
2023/12/04 15:37:08;;;;;;;18.50;13.83;;;;;;;4.76;56.46;97974.75;8361073;23;20209;-72
2023/12/04 15:40:30;;;;;;;20.27;13.20;;;;;;;4.96;56.71;97969.59;8360460;23;20260;-73
2023/12/04 15:43:52;;;;;;;19.70;13.17;;;;;;;4.63;57.59;97971.09;8361871;23;20260;-73
2023/12/04 15:47:12;;;;;;;18.20;13.70;;;;;;;4.76;57.30;97965.88;8361026;23;20185;-72
2023/12/04 15:50:34;;;;;;;21.33;13.97;;;;;;;5.00;56.26;97936.13;8360741;23;20250;-73
2023/12/04 15:53:55;;;;;;;21.90;15.80;;;;;;;5.14;55.66;97946.75;8359172;23;20256;-72
2023/12/04 15:57:18;;;;;;;21.30;13.80;;;;;;;5.53;54.87;97931.06;8361142;23;20213;-72
2023/12/04 16:00:39;;;;;;;17.33;12.73;;;;;;;5.48;54.82;97932.66;8360493;23;20213;-72
2023/12/04 16:04:01;;;;;;;20.73;14.73;;;;;;;5.29;54.57;97902.09;8360815;23;20187;-73
2023/12/04 16:07:22;;;;;;;22.47;14.27;;;;;;;5.22;55.25;97938.63;8361679;23;20186;-73